Latest Weather Observations for Warra

IDT60801

Issued at 9:21 am EST Wednesday 24 July 2024 (issued every 10 minutes, with the page automatically refreshed every 10 minutes)

About weather observations | Map of weather stations | Latest weather observations for TAS | Other Formats
Station Details ID: 097024 Name: WARRA Lat: -43.06 Lon: 146.70 Height: 495.0 m
Data from the previous 72 hours. | See also: Recent months at Warra
Date/Time
EST
Temp
°C
App
Temp
°C
Dew
Point
°C
Rel
Hum
%
Delta-T
°C
Wind Press
QNH
hPa
Press
MSL
hPa
Rain since
9am
mm
Dir  Spd
km/h
Gust
km/h
Spd
kts
Gust
kts
24/09:00am 12.5 4.4 0.0 42 5.3 NW 32 54 17 29 - - 0.2
24/08:30am 12.0 2.5 -0.8 41 5.3 NW 39 67 21 36 - - 0.2
24/08:00am 11.7 1.5 -0.4 43 5.1 NW 43 72 23 39 - - 0.2
24/07:30am 11.5 1.7 -0.3 44 4.9 NW 41 61 22 33 - - 0.2
24/07:00am 11.4 1.2 -0.4 44 4.9 NW 43 63 23 34 - - 0.2
24/06:30am 11.3 1.9 -0.2 45 4.8 NW 39 67 21 36 - - 0.2
24/06:00am 11.1 1.7 -0.1 46 4.7 NW 39 63 21 34 - - 0.2
24/05:30am 11.1 1.7 0.2 47 4.6 NW 39 67 21 36 - - 0.2
24/05:00am 10.7 1.8 0.7 50 4.2 NW 37 70 20 38 - - 0.2
24/04:30am 10.4 2.2 0.2 49 4.3 NW 33 56 18 30 - - 0.2
24/04:00am 10.5 1.9 0.0 48 4.4 NW 35 57 19 31 - - 0.2
24/03:30am 10.5 2.7 -0.9 45 4.6 WNW 30 48 16 26 - - 0.2
24/03:00am 10.5 2.7 -0.9 45 4.6 NW 30 52 16 28 - - 0.2
24/02:30am 10.4 2.6 -1.0 45 4.6 NW 30 54 16 29 - - 0.2
24/02:00am 10.1 2.7 -0.7 47 4.4 NW 28 46 15 25 - - 0.2
24/01:30am 10.0 2.5 -1.1 46 4.5 NW 28 54 15 29 - - 0.2
24/01:23am 9.9 2.5 -0.9 47 4.4 NW 28 54 15 29 - - 0.2
24/01:00am 9.5 3.2 -0.7 49 4.1 NW 22 48 12 26 - - 0.2
24/12:30am 8.5 3.7 0.2 56 3.4 NW 15 28 8 15 - - 0.2
24/12:00am 8.6 2.9 0.3 56 3.4 WNW 20 35 11 19 - - 0.2
 
Date/Time
EST
Temp
°C
App
Temp
°C
Dew
Point
°C
Rel
Hum
%
Delta-T
°C
Wind Press
QNH
hPa
Press
MSL
hPa
Rain since
9am
mm
Dir  Spd
km/h
Gust
km/h
Spd
kts
Gust
kts
23/11:30pm 8.7 2.5 -0.3 53 3.7 WNW 22 41 12 22 - - 0.2
23/11:00pm 8.7 1.4 -0.1 54 3.6 WNW 28 44 15 24 - - 0.2
23/10:30pm 8.4 2.5 1.6 62 2.9 WNW 22 39 12 21 - - 0.2
23/10:00pm 8.7 2.9 2.3 64 2.8 NW 22 39 12 21 - - 0.2
23/09:30pm 8.9 2.8 2.5 64 2.8 WNW 24 43 13 23 - - 0.2
23/09:00pm 9.1 3.4 2.9 65 2.7 WNW 22 37 12 20 - - 0.2
23/08:30pm 9.1 3.0 2.7 64 2.8 WNW 24 39 13 21 - - 0.2
23/08:00pm 9.4 2.9 2.9 64 2.9 WNW 26 46 14 25 - - 0.2
23/07:30pm 9.4 2.6 3.2 65 2.8 WNW 28 46 15 25 - - 0.2
23/07:09pm 9.4 1.7 3.2 65 2.8 WNW 33 52 18 28 - - 0.2
23/07:00pm 9.3 1.7 3.1 65 2.7 WNW 32 46 17 25 - - 0.2
23/06:30pm 9.5 1.0 3.0 64 2.9 WNW 37 61 20 33 - - 0.2
23/06:00pm 9.7 0.8 2.8 62 3.0 WNW 39 57 21 31 - - 0.2
23/05:30pm 9.8 1.6 2.9 62 3.1 WNW 35 65 19 35 - - 0.2
23/05:00pm 9.7 1.6 3.0 63 3.0 NW 35 57 19 31 - - 0.2
23/04:30pm 9.8 2.0 3.1 63 3.0 NW 33 52 18 28 - - 0.2
23/04:00pm 10.1 1.9 2.9 61 3.2 WNW 35 54 19 29 - - 0.2
23/03:30pm 10.3 0.9 2.4 58 3.5 NW 41 65 22 35 - - 0.2
23/03:00pm 11.2 3.7 3.3 58 3.6 WNW 32 52 17 28 - - 0.2
23/02:49pm 11.1 4.3 2.9 57 3.7 WNW 28 46 15 25 - - 0.2
23/02:30pm 11.3 5.2 2.6 55 3.9 WNW 24 44 13 24 - - 0.2
23/02:07pm 11.5 4.8 3.8 59 3.5 WNW 28 54 15 29 - - 0.2
23/02:00pm 11.4 5.5 3.9 60 3.4 WNW 24 44 13 24 - - 0.2
23/01:52pm 11.5 4.8 3.8 59 3.5 WNW 28 48 15 26 - - 0.2
23/01:30pm 11.3 5.1 4.5 63 3.2 WNW 26 48 14 26 - - 0.2
23/01:00pm 11.7 4.4 4.4 61 3.4 WNW 32 63 17 34 - - 0.2
23/12:30pm 12.1 4.8 4.3 59 3.6 WNW 32 76 17 41 - - 0.2
23/12:25pm 11.9 3.9 3.9 58 3.7 WNW 35 76 19 41 - - 0.2
23/12:03pm 11.5 5.0 4.9 64 3.1 WNW 28 54 15 29 - - 0.2
23/12:00pm 11.6 5.2 5.3 65 3.0 WNW 28 43 15 23 - - 0.2
23/11:30am 10.9 4.2 5.7 70 2.5 WNW 30 56 16 30 - - 0.2
23/11:07am 10.7 4.4 5.7 71 2.4 WNW 28 48 15 26 - - 0.2
23/11:00am 10.7 6.0 5.9 72 2.3 WNW 20 39 11 21 - - 0.2
23/10:30am 10.6 5.3 5.2 69 2.5 WNW 22 46 12 25 - - 0.2
23/10:19am 10.5 4.2 5.5 71 2.4 WNW 28 48 15 26 - - 0.2
23/10:00am 9.9 5.4 6.3 78 1.7 NW 19 33 10 18 - - 0.0
23/09:42am 10.8 4.3 4.7 66 2.8 WNW 28 56 15 30 - - 0.0
23/09:30am 10.6 6.2 4.9 68 2.7 WNW 17 37 9 20 - - 0.0
23/09:00am 10.5 6.3 5.9 73 2.2 WNW 17 43 9 23 - - 5.2
23/08:30am 10.1 4.3 6.1 76 1.9 WNW 26 59 14 32 - - 5.2
23/08:00am 9.5 2.7 6.9 84 1.3 WNW 32 54 17 29 - - 5.0
23/07:30am 9.9 3.9 7.2 83 1.3 WNW 28 63 15 34 - - 3.4
23/07:00am 10.6 3.7 6.6 76 1.9 WNW 32 61 17 33 - - 3.2
23/06:30am 10.8 4.2 6.2 73 2.2 WNW 30 50 16 27 - - 3.2
23/06:25am 11.2 4.9 5.9 70 2.5 WNW 28 61 15 33 - - 3.2
23/06:00am 10.9 6.4 6.1 72 2.3 WSW 19 50 10 27 - - 3.2
23/05:30am 11.0 4.8 6.0 71 2.4 W 28 50 15 27 - - 3.2
23/05:04am 10.5 5.9 6.3 75 2.0 NW 20 48 11 26 - - 3.2
23/05:00am 9.8 6.2 6.7 81 1.5 NW 15 33 8 18 - - 3.2
23/04:35am 10.2 4.1 6.4 77 1.8 WNW 28 56 15 30 - - 3.2
23/04:30am 10.0 5.6 6.5 79 1.7 WNW 19 46 10 25 - - 3.0
23/04:00am 10.3 3.4 6.6 78 1.8 W 32 69 17 37 - - 2.8
23/03:30am 10.8 4.2 6.2 73 2.2 WNW 30 61 16 33 - - 2.6
23/03:27am 10.7 4.5 6.1 73 2.2 W 28 59 15 32 - - 2.6
23/03:00am 10.1 4.3 6.4 78 1.8 WNW 26 48 14 26 - - 2.6
23/02:30am 9.8 3.7 6.7 81 1.5 WNW 28 48 15 26 - - 2.4
23/02:00am 10.5 3.3 5.9 73 2.2 WNW 33 52 18 28 - - 2.2
23/01:30am 10.6 2.3 6.0 73 2.2 W 39 70 21 38 - - 2.2
23/01:05am 10.4 4.5 7.3 81 1.5 W 28 56 15 30 - - 2.0
23/01:00am 10.2 5.0 7.4 83 1.4 W 24 41 13 22 - - 2.0
23/12:30am 10.4 5.6 7.3 81 1.5 WNW 22 54 12 29 - - 2.0
23/12:07am 11.2 5.2 6.9 75 2.1 WNW 28 48 15 26 - - 2.0
23/12:00am 10.8 5.2 7.3 79 1.7 WNW 26 44 14 24 - - 2.0
 
Date/Time
EST
Temp
°C
App
Temp
°C
Dew
Point
°C
Rel
Hum
%
Delta-T
°C
Wind Press
QNH
hPa
Press
MSL
hPa
Rain since
9am
mm
Dir  Spd
km/h
Gust
km/h
Spd
kts
Gust
kts
22/11:30pm 10.3 6.0 7.7 84 1.3 W 20 41 11 22 - - 2.0
22/11:00pm 10.2 5.9 7.8 85 1.2 WNW 20 32 11 17 - - 1.6
22/10:30pm 10.1 4.3 8.0 87 1.0 WNW 28 48 15 26 - - 1.0
22/10:00pm 10.6 4.7 7.5 81 1.5 WNW 28 46 15 25 - - 0.6
22/09:30pm 10.6 4.3 7.3 80 1.6 WNW 30 52 16 28 - - 0.6
22/09:18pm 10.3 4.5 7.9 85 1.2 WNW 28 48 15 26 - - 0.6
22/09:00pm 10.0 4.6 7.8 86 1.1 WNW 26 41 14 22 - - 0.6
22/08:30pm 9.7 4.6 7.8 88 0.9 WNW 24 41 13 22 - - 0.2
22/08:08pm 10.0 4.0 6.9 81 1.5 NW 28 46 15 25 - - 0.0
22/08:00pm 9.9 4.2 6.8 81 1.5 NW 26 39 14 21 - - 0.0
22/07:30pm 9.4 3.1 7.2 86 1.1 NW 30 44 16 24 - - 0.0
22/07:02pm 9.6 2.5 6.5 81 1.5 WNW 33 52 18 28 - - 0.0
22/07:00pm 9.6 2.1 6.3 80 1.6 WNW 35 52 19 28 - - 0.0
22/06:38pm 10.1 3.8 5.7 74 2.1 NW 28 48 15 26 - - 0.0
22/06:30pm 10.1 4.1 5.5 73 2.2 NW 26 43 14 23 - - 0.0
22/06:00pm 10.3 3.9 5.3 71 2.3 WNW 28 52 15 28 - - 0.0
22/05:43pm 10.2 3.8 5.2 71 2.3 NW 28 56 15 30 - - 0.0
22/05:30pm 10.2 4.1 5.0 70 2.4 NW 26 44 14 24 - - 0.0
22/05:00pm 10.4 4.0 5.2 70 2.4 NW 28 50 15 27 - - 0.0
22/04:58pm 10.5 4.1 5.1 69 2.5 NW 28 50 15 27 - - 0.0
22/04:30pm 10.5 4.8 5.1 69 2.5 NW 24 43 13 23 - - 0.0
22/04:00pm 10.6 6.4 5.6 71 2.4 WNW 17 33 9 18 - - 0.0
22/03:30pm 11.0 6.2 5.5 69 2.6 NW 20 35 11 19 - - 0.0
22/03:13pm 11.3 6.7 5.4 67 2.8 WNW 19 48 10 26 - - 0.0
22/03:00pm 11.5 7.3 5.6 67 2.8 NW 17 41 9 22 - - 0.0
22/02:30pm 11.7 7.7 6.6 71 2.5 WNW 17 32 9 17 - - 0.0
22/02:00pm 11.0 8.3 7.5 79 1.7 NNW 11 24 6 13 - - 0.0
22/01:30pm 10.7 6.5 7.4 80 1.6 NNW 19 33 10 18 - - 0.0
22/01:00pm 10.7 6.4 7.2 79 1.7 NW 19 37 10 20 - - 0.0
22/12:30pm 9.9 5.5 7.5 85 1.2 NW 20 33 11 18 - - 0.0
22/12:00pm 9.4 5.6 7.7 89 0.8 NNW 17 26 9 14 - - 0.0
22/11:30am 9.9 5.7 7.5 85 1.2 NNW 19 28 10 15 - - 0.0
22/11:00am 10.2 6.0 7.3 82 1.4 NW 19 30 10 16 - - 0.0
22/10:30am 9.3 5.9 7.6 89 0.8 NNW 15 24 8 13 - - 0.0
22/10:00am 8.6 5.5 7.1 90 0.7 NNW 13 20 7 11 - - 0.0
22/09:30am 8.5 5.2 6.6 88 0.9 NNW 13 20 7 11 - - 0.0
22/09:00am 9.0 6.5 6.4 84 1.2 NNW 9 13 5 7 - - 4.2
22/08:30am 7.8 5.2 6.1 89 0.8 WNW 9 17 5 9 - - 4.2
22/08:00am 7.0 4.8 6.1 94 0.4 NW 7 9 4 5 - - 4.2
22/07:30am 7.2 6.3 6.0 92 0.6 CALM 0 6 0 3 - - 4.2
22/07:00am 7.4 6.6 6.3 93 0.5 CALM 0 6 0 3 - - 4.2
22/06:30am 7.7 6.1 6.3 91 0.7 NNE 4 9 2 5 - - 4.2
22/06:00am 8.0 4.6 6.0 87 0.9 WNW 13 24 7 13 - - 4.2
22/05:30am 7.6 6.1 6.7 94 0.4 ENE 4 7 2 4 - - 4.2
22/05:00am 7.9 6.1 7.0 94 0.4 SE 6 9 3 5 - - 4.2
22/04:30am 8.7 4.6 6.3 85 1.1 W 17 32 9 17 - - 4.2
22/04:00am 8.9 4.9 6.7 86 1.1 WSW 17 33 9 18 - - 4.2
22/03:30am 9.1 4.7 6.4 83 1.3 W 19 28 10 15 - - 4.2
22/03:00am 9.3 2.8 6.4 82 1.4 WNW 30 43 16 23 - - 4.2
22/02:33am 9.0 2.8 6.1 82 1.4 WNW 28 46 15 25 - - 4.2
22/02:30am 9.0 3.2 6.3 83 1.3 WNW 26 46 14 25 - - 4.2
22/02:00am 8.5 4.2 6.8 89 0.8 NW 19 28 10 15 - - 4.0
22/01:30am 8.7 4.7 6.5 86 1.0 WNW 17 50 9 27 - - 4.0
22/01:00am 9.0 3.3 6.8 86 1.1 W 26 41 14 22 - - 3.8
22/12:30am 9.5 2.6 6.6 82 1.4 WNW 32 54 17 29 - - 2.2
22/12:00am 9.3 3.2 6.6 83 1.3 W 28 57 15 31 - - 2.2
 
Date/Time
EST
Temp
°C
App
Temp
°C
Dew
Point
°C
Rel
Hum
%
Delta-T
°C
Wind Press
QNH
hPa
Press
MSL
hPa
Rain since
9am
mm
Dir  Spd
km/h
Gust
km/h
Spd
kts
Gust
kts
21/11:58pm 9.4 3.3 6.5 82 1.4 W 28 57 15 31 - - 2.2
21/11:30pm 8.9 4.4 7.0 88 0.9 WNW 20 35 11 19 - - 2.2
21/11:00pm 9.2 2.4 6.8 85 1.2 WNW 32 50 17 27 - - 2.0
21/10:58pm 9.3 2.9 6.9 85 1.2 W 30 50 16 27 - - 2.0
21/10:30pm 8.8 4.6 7.3 90 0.7 WNW 19 30 10 16 - - 1.2
21/10:00pm 9.3 4.7 6.7 84 1.2 WNW 20 32 11 17 - - 0.8
21/09:30pm 9.4 4.0 6.5 82 1.4 WNW 24 56 13 30 - - 0.8
21/09:00pm 8.7 4.3 6.7 87 1.0 WNW 19 35 10 19 - - 0.8
21/08:30pm 8.8 4.9 6.9 88 0.9 WNW 17 28 9 15 - - 0.8
21/08:00pm 8.5 4.2 7.0 90 0.7 NW 19 32 10 17 - - 0.6
21/07:30pm 8.6 3.7 7.1 90 0.7 NW 22 35 12 19 - - 0.6
21/07:00pm 8.0 4.8 6.9 93 0.5 NW 13 20 7 11 - - 0.6
21/06:30pm 7.7 5.7 7.1 96 0.3 NNE 7 9 4 5 - - 0.4
21/06:00pm 7.7 5.0 7.3 97 0.2 N 11 22 6 12 - - 0.4
21/05:30pm 7.6 4.5 7.2 97 0.2 N 13 19 7 10 - - 0.2
21/05:00pm 7.5 5.1 7.1 97 0.2 N 9 13 5 7 - - 0.2
21/04:30pm 7.8 5.0 7.1 95 0.3 N 11 20 6 11 - - 0.2
21/04:00pm 8.0 4.1 6.9 93 0.5 NW 17 33 9 18 - - 0.2
21/03:30pm 7.9 4.3 6.8 93 0.5 NNW 15 28 8 15 - - 0.0
21/03:00pm 7.9 5.1 6.8 93 0.5 NNW 11 22 6 12 - - 0.0
21/02:30pm 8.3 4.3 6.6 89 0.8 NNW 17 28 9 15 - - 0.0
21/02:00pm 8.1 4.8 6.2 88 0.9 NNW 13 19 7 10 - - 0.0
21/01:30pm 8.2 4.8 5.8 85 1.1 NNW 13 22 7 12 - - 0.0
21/01:00pm 8.1 3.9 5.6 84 1.2 NW 17 30 9 16 - - 0.0
21/12:30pm 8.3 3.9 4.5 77 1.7 NW 17 32 9 17 - - 0.0
21/12:00pm 8.6 4.5 4.4 75 1.9 NW 15 28 8 15 - - 0.0
21/11:30am 7.5 4.8 3.9 78 1.6 NW 7 13 4 7 - - 0.0
21/11:00am 6.5 3.8 3.7 82 1.2 W 7 9 4 5 - - 0.0
21/10:30am 6.0 3.2 3.2 82 1.2 WNW 7 13 4 7 - - 0.0
21/10:00am 6.0 0.7 2.8 80 1.4 NW 20 35 11 19 - - 0.0
21/09:30am 5.4 0.0 2.6 82 1.2 NW 20 39 11 21 - - 0.0

Other formats

Comma delimited format used in spreadsheet applications
http://www.bom.gov.au/fwo/IDT60801/IDT60801.95962.axf

JavaScript Object Notation format (JSON) in row-major order
http://www.bom.gov.au/fwo/IDT60801/IDT60801.95962.json

Data quality

Most of these data are generated automatically and are frequently updated. Quality checks on data are not normally performed. It is possible for incorrect values to appear. Refer to information at About Latest Weather Observations and please check the disclaimer before using these data.